sensor_id;sensor_type;location;lat;lon;timestamp;P1;durP1;ratioP1;P2;durP2;ratioP2
80195;SDS011;69516;42.050;21.516;2023-08-31T00:00:55;9.73;;;3.75;;
80195;SDS011;69516;42.050;21.516;2023-08-31T00:03:21;11.52;;;3.60;;
80195;SDS011;69516;42.050;21.516;2023-08-31T00:05:47;13.80;;;3.95;;
80195;SDS011;69516;42.050;21.516;2023-08-31T00:08:16;9.85;;;3.70;;
80195;SDS011;69516;42.050;21.516;2023-08-31T00:10:42;10.70;;;3.65;;
80195;SDS011;69516;42.050;21.516;2023-08-31T00:13:10;11.70;;;3.90;;
80195;SDS011;69516;42.050;21.516;2023-08-31T00:15:37;11.13;;;4.28;;
80195;SDS011;69516;42.050;21.516;2023-08-31T00:18:03;12.88;;;4.90;;
80195;SDS011;69516;42.050;21.516;2023-08-31T00:20:30;13.70;;;4.82;;
80195;SDS011;69516;42.050;21.516;2023-08-31T00:22:56;13.68;;;4.57;;
80195;SDS011;69516;42.050;21.516;2023-08-31T00:25:23;11.98;;;4.78;;
80195;SDS011;69516;42.050;21.516;2023-08-31T00:27:49;15.00;;;4.97;;
80195;SDS011;69516;42.050;21.516;2023-08-31T00:30:17;11.50;;;4.43;;
80195;SDS011;69516;42.050;21.516;2023-08-31T00:32:43;12.38;;;4.80;;
80195;SDS011;69516;42.050;21.516;2023-08-31T00:35:12;11.32;;;4.75;;
80195;SDS011;69516;42.050;21.516;2023-08-31T00:37:38;12.15;;;4.45;;
80195;SDS011;69516;42.050;21.516;2023-08-31T00:40:05;11.27;;;4.53;;
80195;SDS011;69516;42.050;21.516;2023-08-31T00:42:32;11.73;;;4.55;;
80195;SDS011;69516;42.050;21.516;2023-08-31T00:44:58;9.02;;;3.97;;
80195;SDS011;69516;42.050;21.516;2023-08-31T00:47:24;14.00;;;4.15;;
80195;SDS011;69516;42.050;21.516;2023-08-31T00:49:50;11.95;;;4.32;;
80195;SDS011;69516;42.050;21.516;2023-08-31T00:52:17;10.85;;;4.38;;
80195;SDS011;69516;42.050;21.516;2023-08-31T00:54:45;10.23;;;4.35;;
80195;SDS011;69516;42.050;21.516;2023-08-31T00:57:12;10.10;;;3.90;;
80195;SDS011;69516;42.050;21.516;2023-08-31T00:59:38;9.07;;;3.88;;
80195;SDS011;69516;42.050;21.516;2023-08-31T01:02:07;9.85;;;4.30;;
80195;SDS011;69516;42.050;21.516;2023-08-31T01:07:11;10.95;;;3.85;;
80195;SDS011;69516;42.050;21.516;2023-08-31T01:12:52;10.07;;;3.70;;
80195;SDS011;69516;42.050;21.516;2023-08-31T01:15:11;8.40;;;3.60;;
80195;SDS011;69516;42.050;21.516;2023-08-31T01:17:42;9.25;;;3.70;;
80195;SDS011;69516;42.050;21.516;2023-08-31T01:20:10;10.00;;;3.63;;
80195;SDS011;69516;42.050;21.516;2023-08-31T01:22:40;10.43;;;3.88;;
80195;SDS011;69516;42.050;21.516;2023-08-31T01:25:09;11.80;;;3.75;;
80195;SDS011;69516;42.050;21.516;2023-08-31T01:27:35;8.80;;;3.67;;
80195;SDS011;69516;42.050;21.516;2023-08-31T01:30:02;10.82;;;3.97;;
80195;SDS011;69516;42.050;21.516;2023-08-31T01:32:29;8.95;;;3.60;;
80195;SDS011;69516;42.050;21.516;2023-08-31T01:34:55;11.15;;;3.75;;
80195;SDS011;69516;42.050;21.516;2023-08-31T01:37:28;9.02;;;3.17;;
80195;SDS011;69516;42.050;21.516;2023-08-31T01:40:17;10.32;;;3.45;;
80195;SDS011;69516;42.050;21.516;2023-08-31T01:42:42;10.73;;;2.50;;
80195;SDS011;69516;42.050;21.516;2023-08-31T01:45:10;10.23;;;2.88;;
80195;SDS011;69516;42.050;21.516;2023-08-31T01:47:37;6.85;;;2.40;;
80195;SDS011;69516;42.050;21.516;2023-08-31T01:50:03;6.13;;;2.33;;
80195;SDS011;69516;42.050;21.516;2023-08-31T01:52:29;7.53;;;2.22;;
80195;SDS011;69516;42.050;21.516;2023-08-31T01:54:55;5.40;;;1.85;;
80195;SDS011;69516;42.050;21.516;2023-08-31T01:57:22;8.20;;;1.98;;
80195;SDS011;69516;42.050;21.516;2023-08-31T01:59:48;7.72;;;1.98;;
80195;SDS011;69516;42.050;21.516;2023-08-31T02:02:14;7.00;;;2.00;;
80195;SDS011;69516;42.050;21.516;2023-08-31T02:04:40;8.05;;;2.30;;
80195;SDS011;69516;42.050;21.516;2023-08-31T02:07:06;5.80;;;1.90;;
80195;SDS011;69516;42.050;21.516;2023-08-31T02:12:31;8.48;;;2.25;;
80195;SDS011;69516;42.050;21.516;2023-08-31T02:14:57;7.13;;;2.00;;
80195;SDS011;69516;42.050;21.516;2023-08-31T02:17:24;7.15;;;1.98;;
80195;SDS011;69516;42.050;21.516;2023-08-31T02:19:50;8.88;;;2.08;;
80195;SDS011;69516;42.050;21.516;2023-08-31T02:22:17;7.05;;;1.92;;
80195;SDS011;69516;42.050;21.516;2023-08-31T02:24:43;6.60;;;2.13;;
80195;SDS011;69516;42.050;21.516;2023-08-31T02:27:09;6.25;;;1.85;;
80195;SDS011;69516;42.050;21.516;2023-08-31T02:29:35;6.13;;;2.00;;
80195;SDS011;69516;42.050;21.516;2023-08-31T02:32:04;7.05;;;1.73;;
80195;SDS011;69516;42.050;21.516;2023-08-31T02:34:30;6.63;;;1.90;;
80195;SDS011;69516;42.050;21.516;2023-08-31T02:36:56;6.20;;;1.80;;
80195;SDS011;69516;42.050;21.516;2023-08-31T02:39:22;8.00;;;2.08;;
80195;SDS011;69516;42.050;21.516;2023-08-31T02:41:48;5.25;;;1.95;;
80195;SDS011;69516;42.050;21.516;2023-08-31T02:44:15;6.03;;;1.73;;
80195;SDS011;69516;42.050;21.516;2023-08-31T02:46:41;5.47;;;1.80;;
80195;SDS011;69516;42.050;21.516;2023-08-31T02:49:07;5.50;;;1.67;;
80195;SDS011;69516;42.050;21.516;2023-08-31T02:51:33;5.55;;;1.85;;
80195;SDS011;69516;42.050;21.516;2023-08-31T02:53:59;6.07;;;1.65;;
80195;SDS011;69516;42.050;21.516;2023-08-31T02:56:25;5.13;;;1.80;;
80195;SDS011;69516;42.050;21.516;2023-08-31T02:58:51;5.55;;;1.70;;
80195;SDS011;69516;42.050;21.516;2023-08-31T03:01:17;6.10;;;1.83;;
80195;SDS011;69516;42.050;21.516;2023-08-31T03:03:43;5.18;;;1.60;;
80195;SDS011;69516;42.050;21.516;2023-08-31T03:06:11;5.85;;;1.80;;
80195;SDS011;69516;42.050;21.516;2023-08-31T03:08:37;7.35;;;1.75;;
80195;SDS011;69516;42.050;21.516;2023-08-31T03:11:04;7.18;;;1.80;;
80195;SDS011;69516;42.050;21.516;2023-08-31T03:13:30;5.13;;;1.65;;
80195;SDS011;69516;42.050;21.516;2023-08-31T03:15:57;6.47;;;2.00;;
80195;SDS011;69516;42.050;21.516;2023-08-31T03:18:23;5.80;;;1.63;;
80195;SDS011;69516;42.050;21.516;2023-08-31T03:20:49;4.82;;;1.58;;
80195;SDS011;69516;42.050;21.516;2023-08-31T03:23:15;7.38;;;1.92;;
80195;SDS011;69516;42.050;21.516;2023-08-31T03:25:41;6.03;;;1.85;;
80195;SDS011;69516;42.050;21.516;2023-08-31T03:28:07;6.22;;;1.80;;
80195;SDS011;69516;42.050;21.516;2023-08-31T03:30:34;5.63;;;1.70;;
80195;SDS011;69516;42.050;21.516;2023-08-31T03:33:01;5.65;;;1.67;;
80195;SDS011;69516;42.050;21.516;2023-08-31T03:35:27;5.38;;;1.70;;
80195;SDS011;69516;42.050;21.516;2023-08-31T03:37:54;5.70;;;1.80;;
80195;SDS011;69516;42.050;21.516;2023-08-31T03:40:20;5.63;;;1.40;;
80195;SDS011;69516;42.050;21.516;2023-08-31T03:42:48;5.18;;;1.55;;
80195;SDS011;69516;42.050;21.516;2023-08-31T03:45:14;8.50;;;1.95;;
80195;SDS011;69516;42.050;21.516;2023-08-31T03:47:40;5.28;;;1.50;;
80195;SDS011;69516;42.050;21.516;2023-08-31T03:50:06;5.50;;;1.80;;
80195;SDS011;69516;42.050;21.516;2023-08-31T03:52:33;4.88;;;1.75;;
80195;SDS011;69516;42.050;21.516;2023-08-31T03:54:59;5.70;;;1.50;;
80195;SDS011;69516;42.050;21.516;2023-08-31T03:57:25;5.97;;;1.60;;
80195;SDS011;69516;42.050;21.516;2023-08-31T03:59:51;5.20;;;1.80;;
80195;SDS011;69516;42.050;21.516;2023-08-31T04:02:17;6.15;;;1.60;;
80195;SDS011;69516;42.050;21.516;2023-08-31T04:04:44;6.40;;;1.73;;
80195;SDS011;69516;42.050;21.516;2023-08-31T04:07:10;6.35;;;1.88;;
80195;SDS011;69516;42.050;21.516;2023-08-31T04:09:36;6.28;;;1.80;;
80195;SDS011;69516;42.050;21.516;2023-08-31T04:12:02;5.93;;;1.90;;
80195;SDS011;69516;42.050;21.516;2023-08-31T04:14:28;5.32;;;2.10;;
80195;SDS011;69516;42.050;21.516;2023-08-31T04:16:55;10.10;;;2.13;;
80195;SDS011;69516;42.050;21.516;2023-08-31T04:19:21;8.73;;;2.25;;
80195;SDS011;69516;42.050;21.516;2023-08-31T04:21:47;7.63;;;2.33;;
80195;SDS011;69516;42.050;21.516;2023-08-31T04:24:13;6.22;;;1.83;;
80195;SDS011;69516;42.050;21.516;2023-08-31T04:26:39;6.22;;;2.03;;
80195;SDS011;69516;42.050;21.516;2023-08-31T04:29:05;6.97;;;1.80;;
80195;SDS011;69516;42.050;21.516;2023-08-31T04:31:32;5.47;;;1.73;;
80195;SDS011;69516;42.050;21.516;2023-08-31T04:33:58;5.82;;;1.60;;
80195;SDS011;69516;42.050;21.516;2023-08-31T04:36:24;3.97;;;1.40;;
80195;SDS011;69516;42.050;21.516;2023-08-31T04:38:53;6.22;;;1.90;;
80195;SDS011;69516;42.050;21.516;2023-08-31T04:41:19;5.28;;;1.52;;
80195;SDS011;69516;42.050;21.516;2023-08-31T04:43:46;5.07;;;1.60;;
80195;SDS011;69516;42.050;21.516;2023-08-31T04:46:15;7.53;;;2.42;;
80195;SDS011;69516;42.050;21.516;2023-08-31T04:48:42;8.20;;;2.65;;
80195;SDS011;69516;42.050;21.516;2023-08-31T04:51:09;9.20;;;2.70;;
80195;SDS011;69516;42.050;21.516;2023-08-31T04:53:52;9.45;;;3.42;;
80195;SDS011;69516;42.050;21.516;2023-08-31T04:56:18;8.93;;;2.97;;
80195;SDS011;69516;42.050;21.516;2023-08-31T04:58:44;5.07;;;2.08;;
80195;SDS011;69516;42.050;21.516;2023-08-31T05:01:11;9.10;;;3.20;;
80195;SDS011;69516;42.050;21.516;2023-08-31T05:03:37;10.60;;;3.58;;
80195;SDS011;69516;42.050;21.516;2023-08-31T05:06:03;10.95;;;3.42;;
80195;SDS011;69516;42.050;21.516;2023-08-31T05:08:30;8.00;;;3.05;;
80195;SDS011;69516;42.050;21.516;2023-08-31T05:10:56;7.22;;;2.63;;
80195;SDS011;69516;42.050;21.516;2023-08-31T05:13:22;8.52;;;2.90;;
80195;SDS011;69516;42.050;21.516;2023-08-31T05:15:48;8.07;;;2.92;;
80195;SDS011;69516;42.050;21.516;2023-08-31T05:18:14;8.35;;;3.00;;
80195;SDS011;69516;42.050;21.516;2023-08-31T05:20:44;9.50;;;2.92;;
80195;SDS011;69516;42.050;21.516;2023-08-31T05:23:10;6.22;;;2.70;;
80195;SDS011;69516;42.050;21.516;2023-08-31T05:25:41;7.82;;;2.60;;
80195;SDS011;69516;42.050;21.516;2023-08-31T05:28:07;9.38;;;2.50;;
80195;SDS011;69516;42.050;21.516;2023-08-31T05:30:33;9.65;;;2.72;;
80195;SDS011;69516;42.050;21.516;2023-08-31T05:33:00;6.20;;;2.33;;
80195;SDS011;69516;42.050;21.516;2023-08-31T05:35:26;6.35;;;2.55;;
80195;SDS011;69516;42.050;21.516;2023-08-31T05:37:52;8.25;;;3.05;;
80195;SDS011;69516;42.050;21.516;2023-08-31T05:40:18;8.18;;;3.20;;
80195;SDS011;69516;42.050;21.516;2023-08-31T05:42:44;10.23;;;3.75;;
80195;SDS011;69516;42.050;21.516;2023-08-31T05:45:10;11.55;;;3.15;;
80195;SDS011;69516;42.050;21.516;2023-08-31T05:47:38;9.10;;;3.00;;
80195;SDS011;69516;42.050;21.516;2023-08-31T05:50:04;9.90;;;3.63;;
80195;SDS011;69516;42.050;21.516;2023-08-31T05:52:30;11.70;;;4.25;;
80195;SDS011;69516;42.050;21.516;2023-08-31T05:54:57;9.25;;;3.60;;
80195;SDS011;69516;42.050;21.516;2023-08-31T05:57:23;12.38;;;4.97;;
80195;SDS011;69516;42.050;21.516;2023-08-31T05:59:49;12.45;;;5.38;;
80195;SDS011;69516;42.050;21.516;2023-08-31T06:02:15;10.90;;;4.78;;
80195;SDS011;69516;42.050;21.516;2023-08-31T06:04:41;14.90;;;6.75;;
80195;SDS011;69516;42.050;21.516;2023-08-31T06:07:08;12.20;;;5.53;;
80195;SDS011;69516;42.050;21.516;2023-08-31T06:09:34;11.00;;;5.00;;
80195;SDS011;69516;42.050;21.516;2023-08-31T06:12:00;11.48;;;4.75;;
80195;SDS011;69516;42.050;21.516;2023-08-31T06:14:26;14.25;;;5.00;;
80195;SDS011;69516;42.050;21.516;2023-08-31T06:16:52;10.52;;;4.25;;
80195;SDS011;69516;42.050;21.516;2023-08-31T06:19:19;9.20;;;3.42;;
80195;SDS011;69516;42.050;21.516;2023-08-31T06:21:45;9.02;;;3.50;;
80195;SDS011;69516;42.050;21.516;2023-08-31T06:24:11;8.13;;;3.22;;
80195;SDS011;69516;42.050;21.516;2023-08-31T06:26:38;8.65;;;3.30;;
80195;SDS011;69516;42.050;21.516;2023-08-31T06:29:07;6.95;;;3.53;;
80195;SDS011;69516;42.050;21.516;2023-08-31T06:31:36;6.47;;;2.95;;
80195;SDS011;69516;42.050;21.516;2023-08-31T06:34:03;9.20;;;2.90;;
80195;SDS011;69516;42.050;21.516;2023-08-31T06:36:29;7.55;;;2.90;;
80195;SDS011;69516;42.050;21.516;2023-08-31T06:38:55;7.75;;;2.55;;
80195;SDS011;69516;42.050;21.516;2023-08-31T06:41:21;9.13;;;3.30;;
80195;SDS011;69516;42.050;21.516;2023-08-31T06:43:47;8.02;;;3.15;;
80195;SDS011;69516;42.050;21.516;2023-08-31T06:46:14;12.20;;;3.10;;
80195;SDS011;69516;42.050;21.516;2023-08-31T06:48:40;13.27;;;3.10;;
80195;SDS011;69516;42.050;21.516;2023-08-31T06:51:06;8.95;;;3.58;;
80195;SDS011;69516;42.050;21.516;2023-08-31T06:53:32;7.78;;;3.25;;
80195;SDS011;69516;42.050;21.516;2023-08-31T06:55:58;7.30;;;2.95;;
80195;SDS011;69516;42.050;21.516;2023-08-31T06:58:25;9.15;;;3.40;;
80195;SDS011;69516;42.050;21.516;2023-08-31T07:00:51;7.18;;;3.03;;
80195;SDS011;69516;42.050;21.516;2023-08-31T07:03:17;9.73;;;3.25;;
80195;SDS011;69516;42.050;21.516;2023-08-31T07:05:43;7.40;;;3.40;;
80195;SDS011;69516;42.050;21.516;2023-08-31T07:08:10;8.15;;;3.28;;
80195;SDS011;69516;42.050;21.516;2023-08-31T07:10:36;8.75;;;3.28;;
80195;SDS011;69516;42.050;21.516;2023-08-31T07:13:02;9.75;;;3.67;;
80195;SDS011;69516;42.050;21.516;2023-08-31T07:15:29;9.68;;;4.15;;
80195;SDS011;69516;42.050;21.516;2023-08-31T07:17:55;12.32;;;3.92;;
80195;SDS011;69516;42.050;21.516;2023-08-31T07:20:21;9.98;;;3.53;;
80195;SDS011;69516;42.050;21.516;2023-08-31T07:22:47;10.45;;;3.67;;
80195;SDS011;69516;42.050;21.516;2023-08-31T07:25:13;9.88;;;3.55;;
80195;SDS011;69516;42.050;21.516;2023-08-31T07:27:39;9.20;;;3.17;;
80195;SDS011;69516;42.050;21.516;2023-08-31T07:30:06;7.55;;;3.13;;
80195;SDS011;69516;42.050;21.516;2023-08-31T07:32:32;10.20;;;4.03;;
80195;SDS011;69516;42.050;21.516;2023-08-31T07:34:58;10.25;;;3.30;;
80195;SDS011;69516;42.050;21.516;2023-08-31T07:37:25;9.13;;;3.80;;
80195;SDS011;69516;42.050;21.516;2023-08-31T07:39:51;10.45;;;3.53;;
80195;SDS011;69516;42.050;21.516;2023-08-31T07:42:17;10.63;;;4.05;;
80195;SDS011;69516;42.050;21.516;2023-08-31T07:44:43;9.27;;;3.63;;
80195;SDS011;69516;42.050;21.516;2023-08-31T07:47:09;8.48;;;3.80;;
80195;SDS011;69516;42.050;21.516;2023-08-31T07:49:36;8.45;;;3.08;;
80195;SDS011;69516;42.050;21.516;2023-08-31T07:52:02;9.75;;;3.38;;
80195;SDS011;69516;42.050;21.516;2023-08-31T07:54:28;9.93;;;3.60;;
80195;SDS011;69516;42.050;21.516;2023-08-31T07:56:55;9.82;;;3.80;;
80195;SDS011;69516;42.050;21.516;2023-08-31T07:59:21;8.40;;;3.90;;
80195;SDS011;69516;42.050;21.516;2023-08-31T08:01:47;10.15;;;3.85;;
80195;SDS011;69516;42.050;21.516;2023-08-31T08:04:13;8.63;;;3.30;;
80195;SDS011;69516;42.050;21.516;2023-08-31T08:06:40;8.32;;;3.30;;
80195;SDS011;69516;42.050;21.516;2023-08-31T08:09:06;7.90;;;3.40;;
80195;SDS011;69516;42.050;21.516;2023-08-31T08:11:34;10.30;;;3.53;;
80195;SDS011;69516;42.050;21.516;2023-08-31T08:16:26;9.93;;;3.28;;
80195;SDS011;69516;42.050;21.516;2023-08-31T08:18:52;6.82;;;2.72;;
80195;SDS011;69516;42.050;21.516;2023-08-31T08:21:18;6.75;;;2.67;;
80195;SDS011;69516;42.050;21.516;2023-08-31T08:23:44;8.35;;;2.55;;
80195;SDS011;69516;42.050;21.516;2023-08-31T08:26:10;6.22;;;2.70;;
80195;SDS011;69516;42.050;21.516;2023-08-31T08:28:36;6.88;;;2.50;;
80195;SDS011;69516;42.050;21.516;2023-08-31T08:31:03;5.88;;;2.33;;
80195;SDS011;69516;42.050;21.516;2023-08-31T08:33:30;7.22;;;2.47;;
80195;SDS011;69516;42.050;21.516;2023-08-31T08:35:59;7.32;;;2.70;;
80195;SDS011;69516;42.050;21.516;2023-08-31T08:38:25;6.45;;;2.10;;
80195;SDS011;69516;42.050;21.516;2023-08-31T08:40:51;7.53;;;2.80;;
80195;SDS011;69516;42.050;21.516;2023-08-31T08:43:19;5.82;;;2.20;;
80195;SDS011;69516;42.050;21.516;2023-08-31T08:45:49;6.72;;;2.35;;
80195;SDS011;69516;42.050;21.516;2023-08-31T08:48:16;8.05;;;2.20;;
80195;SDS011;69516;42.050;21.516;2023-08-31T08:50:44;5.47;;;2.10;;
80195;SDS011;69516;42.050;21.516;2023-08-31T08:53:10;5.55;;;2.20;;
80195;SDS011;69516;42.050;21.516;2023-08-31T08:55:38;5.85;;;2.17;;
80195;SDS011;69516;42.050;21.516;2023-08-31T08:58:05;7.05;;;2.47;;
80195;SDS011;69516;42.050;21.516;2023-08-31T09:00:32;5.78;;;2.47;;
80195;SDS011;69516;42.050;21.516;2023-08-31T09:02:59;9.02;;;2.63;;
80195;SDS011;69516;42.050;21.516;2023-08-31T09:05:25;7.22;;;2.63;;
80195;SDS011;69516;42.050;21.516;2023-08-31T09:08:25;6.63;;;2.15;;
80195;SDS011;69516;42.050;21.516;2023-08-31T09:10:44;6.97;;;2.30;;
80195;SDS011;69516;42.050;21.516;2023-08-31T09:13:11;7.30;;;2.45;;
80195;SDS011;69516;42.050;21.516;2023-08-31T09:18:07;5.63;;;2.35;;
80195;SDS011;69516;42.050;21.516;2023-08-31T09:20:43;5.43;;;2.10;;
80195;SDS011;69516;42.050;21.516;2023-08-31T09:23:10;7.38;;;2.50;;
80195;SDS011;69516;42.050;21.516;2023-08-31T09:25:46;6.75;;;2.60;;
80195;SDS011;69516;42.050;21.516;2023-08-31T09:28:14;4.13;;;2.03;;
80195;SDS011;69516;42.050;21.516;2023-08-31T09:30:40;7.45;;;2.20;;
80195;SDS011;69516;42.050;21.516;2023-08-31T09:33:07;7.63;;;2.47;;
80195;SDS011;69516;42.050;21.516;2023-08-31T09:35:38;7.03;;;2.25;;
80195;SDS011;69516;42.050;21.516;2023-08-31T09:38:06;6.45;;;2.28;;
80195;SDS011;69516;42.050;21.516;2023-08-31T09:40:33;7.13;;;2.47;;
80195;SDS011;69516;42.050;21.516;2023-08-31T09:42:59;5.85;;;2.45;;
80195;SDS011;69516;42.050;21.516;2023-08-31T09:45:25;8.60;;;2.47;;
80195;SDS011;69516;42.050;21.516;2023-08-31T09:47:52;6.07;;;2.30;;
80195;SDS011;69516;42.050;21.516;2023-08-31T09:50:18;8.70;;;2.72;;
80195;SDS011;69516;42.050;21.516;2023-08-31T09:52:45;6.60;;;2.63;;
80195;SDS011;69516;42.050;21.516;2023-08-31T09:55:12;8.50;;;2.88;;
80195;SDS011;69516;42.050;21.516;2023-08-31T09:57:38;6.32;;;2.40;;
80195;SDS011;69516;42.050;21.516;2023-08-31T10:02:32;7.30;;;2.78;;
80195;SDS011;69516;42.050;21.516;2023-08-31T10:04:59;6.07;;;2.30;;
80195;SDS011;69516;42.050;21.516;2023-08-31T10:07:25;5.75;;;2.35;;
80195;SDS011;69516;42.050;21.516;2023-08-31T10:09:52;6.18;;;2.20;;
80195;SDS011;69516;42.050;21.516;2023-08-31T10:12:18;7.97;;;2.75;;
80195;SDS011;69516;42.050;21.516;2023-08-31T10:14:45;6.22;;;2.60;;
80195;SDS011;69516;42.050;21.516;2023-08-31T10:17:13;6.32;;;2.83;;
80195;SDS011;69516;42.050;21.516;2023-08-31T10:19:40;6.70;;;2.55;;
80195;SDS011;69516;42.050;21.516;2023-08-31T10:22:06;6.68;;;2.67;;
80195;SDS011;69516;42.050;21.516;2023-08-31T10:24:56;6.30;;;3.40;;
80195;SDS011;69516;42.050;21.516;2023-08-31T10:27:21;7.20;;;2.80;;
80195;SDS011;69516;42.050;21.516;2023-08-31T10:29:47;6.10;;;2.67;;
80195;SDS011;69516;42.050;21.516;2023-08-31T10:32:16;6.00;;;2.67;;
80195;SDS011;69516;42.050;21.516;2023-08-31T10:35:20;6.72;;;2.65;;
80195;SDS011;69516;42.050;21.516;2023-08-31T10:37:39;6.63;;;2.72;;
80195;SDS011;69516;42.050;21.516;2023-08-31T10:40:07;6.45;;;2.65;;
80195;SDS011;69516;42.050;21.516;2023-08-31T10:42:40;8.05;;;3.00;;
80195;SDS011;69516;42.050;21.516;2023-08-31T10:47:40;6.60;;;2.58;;
80195;SDS011;69516;42.050;21.516;2023-08-31T10:50:16;6.72;;;2.95;;
80195;SDS011;69516;42.050;21.516;2023-08-31T10:52:42;7.70;;;2.72;;
80195;SDS011;69516;42.050;21.516;2023-08-31T10:55:10;6.40;;;2.40;;
80195;SDS011;69516;42.050;21.516;2023-08-31T10:57:37;6.53;;;2.42;;
80195;SDS011;69516;42.050;21.516;2023-08-31T11:00:04;7.35;;;2.60;;
80195;SDS011;69516;42.050;21.516;2023-08-31T11:07:47;6.05;;;2.15;;
80195;SDS011;69516;42.050;21.516;2023-08-31T11:10:17;7.90;;;2.42;;
80195;SDS011;69516;42.050;21.516;2023-08-31T11:12:45;5.85;;;2.38;;
80195;SDS011;69516;42.050;21.516;2023-08-31T11:15:14;5.97;;;2.45;;
80195;SDS011;69516;42.050;21.516;2023-08-31T11:17:41;6.10;;;2.40;;
80195;SDS011;69516;42.050;21.516;2023-08-31T11:20:08;6.68;;;2.25;;
80195;SDS011;69516;42.050;21.516;2023-08-31T11:22:34;5.60;;;2.20;;
80195;SDS011;69516;42.050;21.516;2023-08-31T11:25:00;6.70;;;2.80;;
80195;SDS011;69516;42.050;21.516;2023-08-31T11:27:26;10.25;;;2.75;;
80195;SDS011;69516;42.050;21.516;2023-08-31T11:29:52;7.28;;;2.28;;
80195;SDS011;69516;42.050;21.516;2023-08-31T11:32:18;6.03;;;2.60;;
80195;SDS011;69516;42.050;21.516;2023-08-31T11:34:45;7.85;;;2.53;;
80195;SDS011;69516;42.050;21.516;2023-08-31T11:37:14;5.97;;;2.65;;
80195;SDS011;69516;42.050;21.516;2023-08-31T11:39:49;6.20;;;2.40;;
80195;SDS011;69516;42.050;21.516;2023-08-31T11:42:15;5.95;;;2.50;;
80195;SDS011;69516;42.050;21.516;2023-08-31T11:44:43;6.38;;;2.50;;
80195;SDS011;69516;42.050;21.516;2023-08-31T11:47:10;7.32;;;2.70;;
80195;SDS011;69516;42.050;21.516;2023-08-31T11:49:36;6.18;;;2.42;;
80195;SDS011;69516;42.050;21.516;2023-08-31T11:52:02;5.95;;;2.22;;
80195;SDS011;69516;42.050;21.516;2023-08-31T11:54:28;6.25;;;3.00;;
80195;SDS011;69516;42.050;21.516;2023-08-31T11:56:54;6.90;;;2.58;;
80195;SDS011;69516;42.050;21.516;2023-08-31T11:59:21;5.82;;;2.75;;
80195;SDS011;69516;42.050;21.516;2023-08-31T12:01:48;9.13;;;3.17;;
80195;SDS011;69516;42.050;21.516;2023-08-31T12:04:20;9.27;;;3.00;;
80195;SDS011;69516;42.050;21.516;2023-08-31T12:06:51;7.43;;;2.92;;
80195;SDS011;69516;42.050;21.516;2023-08-31T12:09:18;7.75;;;2.92;;
80195;SDS011;69516;42.050;21.516;2023-08-31T12:11:52;6.78;;;3.20;;
80195;SDS011;69516;42.050;21.516;2023-08-31T12:14:19;7.13;;;2.90;;
80195;SDS011;69516;42.050;21.516;2023-08-31T12:16:45;8.50;;;2.83;;
80195;SDS011;69516;42.050;21.516;2023-08-31T12:19:11;5.80;;;2.67;;
80195;SDS011;69516;42.050;21.516;2023-08-31T12:21:37;5.85;;;2.55;;
80195;SDS011;69516;42.050;21.516;2023-08-31T12:24:04;6.97;;;2.60;;
80195;SDS011;69516;42.050;21.516;2023-08-31T12:26:31;5.30;;;2.55;;
80195;SDS011;69516;42.050;21.516;2023-08-31T12:28:58;9.13;;;2.60;;
80195;SDS011;69516;42.050;21.516;2023-08-31T12:31:24;7.68;;;2.63;;
80195;SDS011;69516;42.050;21.516;2023-08-31T12:33:50;6.78;;;2.58;;
80195;SDS011;69516;42.050;21.516;2023-08-31T12:36:16;7.32;;;2.90;;
80195;SDS011;69516;42.050;21.516;2023-08-31T12:38:42;6.97;;;2.65;;
80195;SDS011;69516;42.050;21.516;2023-08-31T12:41:09;7.63;;;2.83;;
80195;SDS011;69516;42.050;21.516;2023-08-31T12:43:35;8.98;;;2.70;;
80195;SDS011;69516;42.050;21.516;2023-08-31T12:46:01;7.93;;;2.60;;
80195;SDS011;69516;42.050;21.516;2023-08-31T12:48:31;7.35;;;2.80;;
80195;SDS011;69516;42.050;21.516;2023-08-31T12:50:57;8.38;;;2.67;;
80195;SDS011;69516;42.050;21.516;2023-08-31T12:53:23;6.00;;;2.40;;
80195;SDS011;69516;42.050;21.516;2023-08-31T12:55:49;5.70;;;2.22;;
80195;SDS011;69516;42.050;21.516;2023-08-31T12:58:16;5.50;;;2.30;;
80195;SDS011;69516;42.050;21.516;2023-08-31T13:00:42;5.72;;;2.08;;
80195;SDS011;69516;42.050;21.516;2023-08-31T13:03:09;5.90;;;2.03;;
80195;SDS011;69516;42.050;21.516;2023-08-31T13:05:38;7.28;;;2.10;;
80195;SDS011;69516;42.050;21.516;2023-08-31T13:08:05;6.43;;;2.03;;
80195;SDS011;69516;42.050;21.516;2023-08-31T13:10:31;4.85;;;1.77;;
80195;SDS011;69516;42.050;21.516;2023-08-31T13:12:57;4.50;;;2.03;;
80195;SDS011;69516;42.050;21.516;2023-08-31T13:15:23;6.55;;;2.08;;
80195;SDS011;69516;42.050;21.516;2023-08-31T13:17:50;5.97;;;2.08;;
80195;SDS011;69516;42.050;21.516;2023-08-31T13:20:16;6.25;;;2.30;;
80195;SDS011;69516;42.050;21.516;2023-08-31T13:22:42;5.75;;;2.30;;
80195;SDS011;69516;42.050;21.516;2023-08-31T13:25:08;5.05;;;2.05;;
80195;SDS011;69516;42.050;21.516;2023-08-31T13:27:36;5.75;;;2.35;;
80195;SDS011;69516;42.050;21.516;2023-08-31T13:30:02;5.70;;;2.08;;
80195;SDS011;69516;42.050;21.516;2023-08-31T13:32:34;5.55;;;2.20;;
80195;SDS011;69516;42.050;21.516;2023-08-31T13:35:00;5.93;;;2.35;;
80195;SDS011;69516;42.050;21.516;2023-08-31T13:37:26;6.82;;;2.72;;
80195;SDS011;69516;42.050;21.516;2023-08-31T13:39:52;7.03;;;2.63;;
80195;SDS011;69516;42.050;21.516;2023-08-31T13:42:21;6.75;;;2.70;;
80195;SDS011;69516;42.050;21.516;2023-08-31T13:44:47;7.80;;;2.50;;
80195;SDS011;69516;42.050;21.516;2023-08-31T13:47:13;6.28;;;2.50;;
80195;SDS011;69516;42.050;21.516;2023-08-31T13:49:39;5.78;;;2.30;;
80195;SDS011;69516;42.050;21.516;2023-08-31T13:52:06;6.68;;;2.25;;
80195;SDS011;69516;42.050;21.516;2023-08-31T13:54:34;7.25;;;2.40;;
80195;SDS011;69516;42.050;21.516;2023-08-31T13:57:00;5.78;;;2.20;;
80195;SDS011;69516;42.050;21.516;2023-08-31T13:59:26;6.53;;;2.70;;
80195;SDS011;69516;42.050;21.516;2023-08-31T14:01:53;7.85;;;2.50;;
80195;SDS011;69516;42.050;21.516;2023-08-31T14:04:19;6.40;;;2.75;;
80195;SDS011;69516;42.050;21.516;2023-08-31T14:06:47;7.15;;;2.70;;
80195;SDS011;69516;42.050;21.516;2023-08-31T14:09:13;6.07;;;2.35;;
80195;SDS011;69516;42.050;21.516;2023-08-31T14:11:40;7.80;;;3.40;;
80195;SDS011;69516;42.050;21.516;2023-08-31T14:14:06;5.03;;;2.55;;
80195;SDS011;69516;42.050;21.516;2023-08-31T14:16:36;6.30;;;2.35;;
80195;SDS011;69516;42.050;21.516;2023-08-31T14:19:02;6.80;;;2.10;;
80195;SDS011;69516;42.050;21.516;2023-08-31T14:21:29;5.93;;;2.53;;
80195;SDS011;69516;42.050;21.516;2023-08-31T14:23:55;5.75;;;2.10;;
80195;SDS011;69516;42.050;21.516;2023-08-31T14:26:24;6.03;;;2.33;;
80195;SDS011;69516;42.050;21.516;2023-08-31T14:28:51;5.32;;;2.10;;
80195;SDS011;69516;42.050;21.516;2023-08-31T14:31:17;4.85;;;2.00;;
80195;SDS011;69516;42.050;21.516;2023-08-31T14:33:44;7.00;;;2.72;;
80195;SDS011;69516;42.050;21.516;2023-08-31T14:36:10;5.78;;;2.20;;
80195;SDS011;69516;42.050;21.516;2023-08-31T14:38:37;6.80;;;2.40;;
80195;SDS011;69516;42.050;21.516;2023-08-31T14:41:03;5.00;;;2.00;;
80195;SDS011;69516;42.050;21.516;2023-08-31T14:43:31;5.20;;;1.90;;
80195;SDS011;69516;42.050;21.516;2023-08-31T14:45:57;6.88;;;2.20;;
80195;SDS011;69516;42.050;21.516;2023-08-31T14:48:25;5.57;;;2.17;;
80195;SDS011;69516;42.050;21.516;2023-08-31T14:50:51;6.07;;;2.20;;
80195;SDS011;69516;42.050;21.516;2023-08-31T14:53:18;6.38;;;2.22;;
80195;SDS011;69516;42.050;21.516;2023-08-31T14:55:50;5.15;;;2.10;;